Pagrindinis puslapis
METAR-TAF:

METAR-TAF

Oro uostai :

McKinley Park, Aliaska, Jungtinės Amerikos Valstijos

platuma: 63-44N, ilguma: 148-55W, Aukštis: 524 m

Dabartinis oras

Ataskaita buvo paskelbta 46 minutes, ne 17:56 UTC
Ramus vėjas
Temperatūra -21°C
Drėgmė 77%
Slėgis 1010 hPa
Matomumas: 16.1 km
Apsiniaukę ne aukštis 4000 ft
sniegas

METAR: PAIN 161756Z AUTO 00000KT 10SM -SN OVC040 M21/M24 A2983 RMK AO2 SNE26B55 SLP182 P0000 60000 T12111244 11211 21278 53008 FZRANO

Laikas: 09:42 (18:42 UTC)


TAF: trūkstamas

Orai ataskaitas ir orų prognozės (METAR, TAF).

turimą stotys yra geltonos ir raudonos taškus žemėlapyje.

Perkelti pele per norėdami pamatyti stoties vardą.

Tada spustelėkite, norėdami matyti oro stebėjimo ir prognozės.

Norėdami pakeisti žemėlapį: spustelėkite ant žalios mygtukų su juodo kryžiaus žemyn,; žalią mygtuką su brūkšneliu, jei norite nutolinti; arba žalių rodyklių gretimoms žemėlapius.


METAR-TAF: